createdAt,value
2019-03-03T00:02:28.576Z,54.10
2019-03-03T00:05:01.859Z,51.83
2019-03-03T00:07:35.854Z,50.63
2019-03-03T00:10:18.407Z,50.30
2019-03-03T00:12:51.964Z,49.93
2019-03-03T00:15:25.242Z,48.87
2019-03-03T00:17:58.382Z,47.80
2019-03-03T00:20:42.241Z,46.10
2019-03-03T00:23:15.406Z,47.90
2019-03-03T00:25:48.502Z,49.00
2019-03-03T00:28:22.220Z,45.30
2019-03-03T00:30:55.697Z,43.47
2019-03-03T00:33:30.595Z,43.93
2019-03-03T00:36:03.705Z,42.70
2019-03-03T00:38:55.809Z,41.53
2019-03-03T00:42:11.807Z,40.57
2019-03-03T00:45:33.532Z,40.10
2019-03-03T00:48:41.387Z,38.43
2019-03-03T00:51:59.076Z,36.23
2019-03-03T00:55:04.911Z,37.23
2019-03-03T00:57:48.983Z,33.80
2019-03-03T01:00:38.063Z,36.97
2019-03-03T01:03:32.119Z,35.60
2019-03-03T01:06:33.883Z,34.93
2019-03-03T01:09:55.465Z,36.13
2019-03-03T01:12:38.705Z,30.10
2019-03-03T01:15:31.160Z,34.20
2019-03-03T01:18:15.375Z,31.63
2019-03-03T01:20:59.706Z,29.17
2019-03-03T01:23:50.537Z,31.43
2019-03-03T01:26:26.230Z,27.13
2019-03-03T01:28:59.390Z,28.63
2019-03-03T01:31:32.902Z,23.77
2019-03-03T01:34:06.326Z,24.70
2019-03-03T01:36:48.651Z,26.73
2019-03-03T01:39:22.412Z,21.93
2019-03-03T01:42:05.460Z,23.93
2019-03-03T01:44:47.689Z,27.50
2019-03-03T01:47:21.144Z,27.93
2019-03-03T01:49:54.292Z,21.03
2019-03-03T01:52:28.366Z,24.50
2019-03-03T01:55:01.816Z,25.20
2019-03-03T01:57:35.321Z,22.03
2019-03-03T02:00:17.439Z,22.53
2019-03-03T02:02:51.002Z,24.90
2019-03-03T02:05:25.276Z,21.30
2019-03-03T02:08:07.543Z,21.40
2019-03-03T02:10:40.927Z,24.87
2019-03-03T02:13:16.809Z,20.43
2019-03-03T02:15:59.102Z,18.70
2019-03-03T02:18:33.046Z,24.97
2019-03-03T02:21:16.170Z,17.67
2019-03-03T02:23:59.064Z,18.43
2019-03-03T02:26:41.322Z,18.70
2019-03-03T02:29:15.148Z,17.93
2019-03-03T02:31:49.900Z,19.27
2019-03-03T02:34:23.532Z,21.00
2019-03-03T02:36:56.960Z,21.33
2019-03-03T02:39:30.145Z,20.00
2019-03-03T02:42:03.565Z,21.23
2019-03-03T02:44:47.078Z,17.77
2019-03-03T02:47:20.235Z,26.33
2019-03-03T02:49:53.809Z,21.63
2019-03-03T02:52:27.256Z,15.13
2019-03-03T02:55:01.010Z,18.93
2019-03-03T02:57:34.527Z,15.97
2019-03-03T03:00:12.438Z,19.87
2019-03-03T03:02:58.942Z,15.33
2019-03-03T03:06:00.453Z,16.63
2019-03-03T03:08:39.738Z,18.83
2019-03-03T03:11:30.925Z,16.03
2019-03-03T03:14:12.901Z,12.57
2019-03-03T03:17:02.460Z,19.13
2019-03-03T03:19:53.011Z,13.20
2019-03-03T03:22:54.317Z,21.43
2019-03-03T03:25:54.592Z,20.63
2019-03-03T03:29:04.472Z,12.63
2019-03-03T03:32:32.083Z,18.60
2019-03-03T03:35:24.702Z,15.53
2019-03-03T03:38:38.323Z,16.10
2019-03-03T03:41:19.601Z,17.43
2019-03-03T03:44:02.508Z,17.27
2019-03-03T03:46:56.670Z,14.60
2019-03-03T03:50:02.731Z,20.40
2019-03-03T03:52:53.894Z,16.37
2019-03-03T03:55:47.387Z,14.90
2019-03-03T03:58:29.338Z,17.23
2019-03-03T04:01:25.694Z,13.83
2019-03-03T04:04:35.717Z,18.40
2019-03-03T04:07:14.658Z,15.37
2019-03-03T04:10:17.719Z,15.67
2019-03-03T04:13:24.700Z,17.70
2019-03-03T04:16:13.150Z,20.43
2019-03-03T04:19:21.379Z,14.73
2019-03-03T04:22:34.456Z,16.03
2019-03-03T04:25:18.355Z,16.30
2019-03-03T04:28:13.234Z,17.57
2019-03-03T04:31:26.691Z,16.73
2019-03-03T04:34:10.023Z,16.77
2019-03-03T04:36:52.973Z,19.90
2019-03-03T04:39:50.258Z,19.80
2019-03-03T04:42:38.923Z,19.17
2019-03-03T04:45:27.234Z,18.97
2019-03-03T04:48:26.136Z,15.97
2019-03-03T04:51:08.678Z,19.93
2019-03-03T04:54:26.306Z,19.53
2019-03-03T04:57:39.565Z,18.33
2019-03-03T05:00:47.381Z,19.40
2019-03-03T05:03:35.818Z,18.00
2019-03-03T05:06:56.288Z,14.57
2019-03-03T05:09:47.093Z,18.90
2019-03-03T05:12:53.801Z,20.20
2019-03-03T05:16:04.190Z,18.17
2019-03-03T05:18:49.490Z,17.33
2019-03-03T05:21:23.311Z,19.73
2019-03-03T05:23:56.800Z,21.47
2019-03-03T05:26:31.470Z,22.60
2019-03-03T05:29:04.642Z,17.93
2019-03-03T05:31:49.066Z,20.47
2019-03-03T05:34:31.658Z,20.87
2019-03-03T05:37:14.642Z,26.40
2019-03-03T05:39:57.328Z,18.30
2019-03-03T05:42:31.371Z,21.60
2019-03-03T05:45:13.850Z,23.73
2019-03-03T05:47:47.116Z,17.90
2019-03-03T05:50:19.934Z,17.57
2019-03-03T05:53:08.166Z,24.73
2019-03-03T05:55:41.819Z,23.03
2019-03-03T05:58:15.606Z,25.63
2019-03-03T06:00:58.322Z,24.13
2019-03-03T06:03:31.550Z,24.10
2019-03-03T06:06:05.041Z,23.40
2019-03-03T06:08:39.009Z,22.53
2019-03-03T06:11:12.470Z,24.27
2019-03-03T06:13:46.558Z,23.70
2019-03-03T06:16:35.574Z,25.67
2019-03-03T06:19:17.575Z,22.23
2019-03-03T06:21:51.088Z,25.40
2019-03-03T06:24:25.050Z,27.07
2019-03-03T06:26:59.503Z,26.07
2019-03-03T06:29:33.631Z,31.13
2019-03-03T06:32:07.097Z,27.77
2019-03-03T06:34:40.489Z,30.07
2019-03-03T06:37:14.827Z,27.07
2019-03-03T06:39:49.060Z,29.43
2019-03-03T06:42:23.970Z,35.97
2019-03-03T06:45:09.881Z,35.97
2019-03-03T06:47:45.502Z,36.23
2019-03-03T06:50:27.664Z,34.37
2019-03-03T06:53:00.866Z,35.13
2019-03-03T06:55:34.654Z,34.27
2019-03-03T06:58:09.095Z,33.07
2019-03-03T07:00:52.243Z,36.13
2019-03-03T07:03:36.086Z,34.27
2019-03-03T07:06:09.503Z,34.93
2019-03-03T07:08:43.033Z,37.23
2019-03-03T07:11:17.075Z,34.17
2019-03-03T07:13:51.030Z,34.90
2019-03-03T07:16:34.254Z,32.63
2019-03-03T07:19:07.852Z,37.30
2019-03-03T07:21:41.769Z,36.27
2019-03-03T07:24:15.782Z,30.07
2019-03-03T07:26:49.396Z,33.60
2019-03-03T07:29:23.828Z,30.83
2019-03-03T07:31:57.975Z,32.30
2019-03-03T07:34:32.148Z,30.10
2019-03-03T07:37:15.039Z,31.90
2019-03-03T07:40:06.724Z,28.27
2019-03-03T07:42:49.620Z,31.40
2019-03-03T07:45:32.703Z,32.30
2019-03-03T07:48:15.046Z,30.33
2019-03-03T07:50:48.465Z,30.03
2019-03-03T07:53:21.676Z,29.77
2019-03-03T07:55:54.928Z,28.67
2019-03-03T07:58:37.512Z,22.97
2019-03-03T08:01:20.500Z,27.03
2019-03-03T08:03:53.745Z,27.43
2019-03-03T08:06:37.125Z,23.70
2019-03-03T08:09:11.493Z,21.50
2019-03-03T08:11:45.233Z,27.57
2019-03-03T08:14:19.313Z,29.60
2019-03-03T08:17:01.770Z,25.77
2019-03-03T08:19:36.524Z,23.43
2019-03-03T08:22:21.468Z,25.60
2019-03-03T08:24:55.090Z,24.90
2019-03-03T08:27:28.666Z,20.57
2019-03-03T08:30:02.715Z,22.27
2019-03-03T08:32:44.979Z,26.40
2019-03-03T08:35:18.506Z,28.13
2019-03-03T08:37:52.423Z,27.53
2019-03-03T08:40:25.644Z,25.50
2019-03-03T08:43:04.535Z,25.47
2019-03-03T08:45:59.573Z,25.60
2019-03-03T08:49:21.724Z,24.00
2019-03-03T08:52:30.324Z,25.67
2019-03-03T08:55:25.702Z,21.40
2019-03-03T08:58:34.730Z,25.03
2019-03-03T09:01:17.497Z,23.27
2019-03-03T09:04:26.337Z,19.20
2019-03-03T09:07:19.172Z,26.23
2019-03-03T09:10:00.871Z,20.83
2019-03-03T09:13:25.570Z,21.37
2019-03-03T09:16:37.980Z,21.37
2019-03-03T09:19:43.153Z,19.53
2019-03-03T09:22:55.169Z,19.00
2019-03-03T09:25:46.501Z,24.03
2019-03-03T09:28:35.604Z,19.60
2019-03-03T09:31:34.126Z,18.60
2019-03-03T09:34:49.312Z,16.57
2019-03-03T09:37:30.348Z,16.37
2019-03-03T09:40:25.590Z,14.10
2019-03-03T09:43:16.784Z,20.30
2019-03-03T09:46:32.674Z,12.80
2019-03-03T09:49:27.718Z,17.37
2019-03-03T09:52:19.838Z,16.57
2019-03-03T09:55:37.624Z,16.37
2019-03-03T09:58:53.024Z,13.70
2019-03-03T10:02:02.884Z,15.90
2019-03-03T10:05:27.405Z,11.30
2019-03-03T10:08:23.064Z,13.60
2019-03-03T10:11:14.870Z,14.00
2019-03-03T10:14:07.193Z,13.57
2019-03-03T10:16:58.617Z,16.93
2019-03-03T10:19:44.878Z,13.10
2019-03-03T10:22:36.401Z,13.27
2019-03-03T10:25:27.031Z,14.97
2019-03-03T10:28:48.134Z,14.77
2019-03-03T10:31:38.535Z,14.93
2019-03-03T10:34:50.784Z,16.93
2019-03-03T10:37:39.036Z,15.40
2019-03-03T10:40:47.639Z,16.93
2019-03-03T10:43:40.156Z,16.90
2019-03-03T10:46:36.590Z,15.87
2019-03-03T10:49:17.954Z,15.50
2019-03-03T10:52:04.448Z,13.30
2019-03-03T10:54:55.791Z,15.03
2019-03-03T10:57:48.353Z,13.20
2019-03-03T11:00:41.207Z,18.40
2019-03-03T11:03:34.133Z,16.00
2019-03-03T11:06:27.299Z,15.47
2019-03-03T11:09:37.432Z,14.80
2019-03-03T11:12:37.702Z,18.10
2019-03-03T11:15:47.177Z,17.17
2019-03-03T11:18:42.444Z,17.57
2019-03-03T11:22:09.560Z,16.23
2019-03-03T11:25:22.655Z,18.13
2019-03-03T11:28:36.579Z,15.47
2019-03-03T11:31:34.978Z,15.67
2019-03-03T11:34:29.727Z,16.13
2019-03-03T11:37:15.356Z,18.80
2019-03-03T11:40:07.912Z,16.00
2019-03-03T11:43:00.340Z,15.67
2019-03-03T11:46:20.819Z,18.20
2019-03-03T11:49:32.305Z,14.20
2019-03-03T11:52:53.094Z,15.57
2019-03-03T11:56:14.315Z,14.30
2019-03-03T11:59:12.737Z,17.67
2019-03-03T12:02:39.941Z,19.03
2019-03-03T12:05:41.432Z,15.73
2019-03-03T12:08:33.562Z,17.10
2019-03-03T12:11:17.791Z,17.00
2019-03-03T12:14:28.469Z,20.03
2019-03-03T12:17:43.518Z,16.83
2019-03-03T12:20:33.000Z,14.90
2019-03-03T12:23:41.423Z,16.77
2019-03-03T12:26:23.936Z,18.10
2019-03-03T12:29:20.585Z,15.60
2019-03-03T12:32:23.574Z,16.53
2019-03-03T12:37:59.371Z,18.37
2019-03-03T12:41:10.114Z,14.87
2019-03-03T12:44:19.638Z,15.07
2019-03-03T12:47:18.742Z,16.63
2019-03-03T12:50:17.487Z,15.70
2019-03-03T12:53:10.962Z,15.73
2019-03-03T12:56:12.457Z,16.87
2019-03-03T12:59:07.775Z,17.00
2019-03-03T13:02:06.442Z,14.30
2019-03-03T13:05:14.788Z,17.60
2019-03-03T13:08:45.320Z,15.70
2019-03-03T13:11:25.839Z,14.50
2019-03-03T13:14:24.373Z,13.13
2019-03-03T13:17:34.863Z,15.17
2019-03-03T13:20:29.656Z,13.43
2019-03-03T13:23:40.586Z,12.27
2019-03-03T13:26:45.398Z,13.27
2019-03-03T13:29:43.986Z,14.00
2019-03-03T13:32:41.556Z,11.33
2019-03-03T13:35:32.524Z,13.10
2019-03-03T13:38:31.077Z,10.77
2019-03-03T13:41:35.130Z,12.60
2019-03-03T13:44:09.100Z,11.40
2019-03-03T13:46:43.308Z,14.80
2019-03-03T13:49:25.936Z,11.63
2019-03-03T13:52:03.310Z,12.40
2019-03-03T13:54:37.148Z,13.47
2019-03-03T13:57:10.695Z,11.90
2019-03-03T13:59:44.415Z,13.90
2019-03-03T14:02:21.979Z,19.13
2019-03-03T14:05:04.779Z,12.87
2019-03-03T14:07:37.908Z,14.57
2019-03-03T14:10:12.593Z,13.87
2019-03-03T14:12:45.695Z,13.23
2019-03-03T14:15:20.493Z,13.33
2019-03-03T14:17:53.587Z,14.23
2019-03-03T14:20:27.152Z,14.50
2019-03-03T14:23:01.033Z,14.27
2019-03-03T14:25:34.546Z,14.10
2019-03-03T14:28:08.145Z,12.97
2019-03-03T14:30:54.293Z,12.00
2019-03-03T14:33:28.345Z,15.03
2019-03-03T14:36:01.569Z,12.27
2019-03-03T14:38:35.962Z,13.50
2019-03-03T14:41:09.712Z,15.33
2019-03-03T14:43:42.475Z,14.00
2019-03-03T14:46:17.216Z,15.17
2019-03-03T14:48:51.560Z,17.50
2019-03-03T14:51:34.198Z,15.90
2019-03-03T14:54:10.638Z,16.67
2019-03-03T14:56:49.114Z,13.43
2019-03-03T14:59:22.286Z,14.90
2019-03-03T15:01:56.183Z,11.67
2019-03-03T15:04:30.003Z,15.07
2019-03-03T15:07:14.877Z,18.23
2019-03-03T15:09:58.041Z,17.30
2019-03-03T15:12:46.335Z,15.17
2019-03-03T15:15:21.485Z,15.50
2019-03-03T15:18:00.970Z,15.23
2019-03-03T15:20:34.398Z,13.80
2019-03-03T15:23:08.139Z,13.70
2019-03-03T15:25:41.674Z,15.87
2019-03-03T15:28:15.198Z,14.13
2019-03-03T15:30:48.442Z,13.80
2019-03-03T15:33:32.976Z,15.00
2019-03-03T15:36:18.942Z,15.80
2019-03-03T15:39:08.002Z,14.57
2019-03-03T15:41:59.691Z,13.47
2019-03-03T15:44:32.848Z,16.17
2019-03-03T15:47:07.372Z,16.33
2019-03-03T15:49:50.282Z,14.60
2019-03-03T15:52:23.474Z,17.23
2019-03-03T15:55:06.266Z,17.63
2019-03-03T15:57:49.279Z,13.27
2019-03-03T16:00:32.923Z,17.50
2019-03-03T16:03:06.861Z,16.30
2019-03-03T16:05:40.747Z,16.67
2019-03-03T16:08:14.206Z,15.27
2019-03-03T16:10:49.001Z,18.07
2019-03-03T16:13:22.562Z,17.10
2019-03-03T16:15:56.080Z,17.43
2019-03-03T16:18:29.595Z,19.00
2019-03-03T16:21:03.192Z,18.17
2019-03-03T16:23:36.351Z,18.97
2019-03-03T16:26:18.320Z,17.30
2019-03-03T16:28:52.484Z,19.83
2019-03-03T16:31:35.638Z,17.73
2019-03-03T16:34:09.871Z,20.00
2019-03-03T16:36:43.335Z,17.33
2019-03-03T16:39:17.001Z,18.37
2019-03-03T16:41:50.132Z,19.87
2019-03-03T16:44:24.254Z,19.17
2019-03-03T16:46:57.959Z,19.00
2019-03-03T16:49:31.562Z,21.97
2019-03-03T16:52:04.975Z,25.07
2019-03-03T16:54:38.494Z,20.70
2019-03-03T16:57:12.338Z,25.20
2019-03-03T16:59:46.037Z,27.23
2019-03-03T17:02:19.874Z,25.53
2019-03-03T17:04:53.523Z,23.43
2019-03-03T17:07:27.017Z,24.07
2019-03-03T17:10:00.551Z,26.53
2019-03-03T17:12:34.547Z,23.80
2019-03-03T17:15:21.477Z,27.17
2019-03-03T17:17:54.726Z,24.77
2019-03-03T17:20:28.138Z,25.97
2019-03-03T17:23:02.249Z,32.00
2019-03-03T17:25:35.523Z,25.93
2019-03-03T17:28:09.455Z,24.80
2019-03-03T17:30:42.488Z,24.30
2019-03-03T17:33:15.619Z,28.77
2019-03-03T17:35:58.579Z,24.70
2019-03-03T17:38:41.088Z,26.33
2019-03-03T17:41:14.941Z,27.73
2019-03-03T17:43:50.103Z,26.40
2019-03-03T17:46:36.122Z,29.30
2019-03-03T17:49:18.768Z,27.20
2019-03-03T17:51:51.878Z,29.80
2019-03-03T17:54:25.117Z,29.07
2019-03-03T17:56:59.015Z,26.80
2019-03-03T17:59:33.176Z,26.70
2019-03-03T18:02:07.165Z,27.87
2019-03-03T18:04:52.016Z,25.97
2019-03-03T18:07:25.174Z,25.37
2019-03-03T18:10:13.232Z,27.57
2019-03-03T18:12:47.727Z,30.90
2019-03-03T18:15:20.458Z,32.47
2019-03-03T18:17:54.962Z,31.90
2019-03-03T18:20:28.643Z,30.80
2019-03-03T18:23:02.205Z,26.20
2019-03-03T18:25:35.429Z,27.17
2019-03-03T18:28:17.887Z,29.30
2019-03-03T18:30:51.332Z,30.17
2019-03-03T18:33:24.797Z,29.80
2019-03-03T18:35:58.685Z,32.77
2019-03-03T18:38:32.238Z,29.03
2019-03-03T18:41:05.323Z,35.03
2019-03-03T18:43:38.529Z,32.87
2019-03-03T18:46:12.180Z,33.17
2019-03-03T18:48:45.474Z,37.43
2019-03-03T18:51:29.072Z,34.17
2019-03-03T18:54:14.942Z,36.63
2019-03-03T18:56:48.727Z,36.53
2019-03-03T18:59:22.675Z,37.33
2019-03-03T19:01:55.858Z,38.50
2019-03-03T19:04:29.753Z,41.37
2019-03-03T19:07:03.376Z,40.50
2019-03-03T19:09:37.572Z,37.23
2019-03-03T19:12:29.729Z,43.23
2019-03-03T19:15:03.441Z,44.63
2019-03-03T19:17:37.550Z,39.57
2019-03-03T19:20:11.467Z,40.80
2019-03-03T19:22:54.352Z,43.83
2019-03-03T19:25:28.020Z,43.17
2019-03-03T19:28:01.167Z,37.33
2019-03-03T19:30:56.220Z,37.43
2019-03-03T19:34:05.171Z,34.00
2019-03-03T19:36:45.887Z,36.63
2019-03-03T19:39:36.627Z,35.60
2019-03-03T19:42:10.770Z,39.10
2019-03-03T19:44:44.551Z,41.87
2019-03-03T19:47:26.764Z,37.50
2019-03-03T19:50:00.008Z,36.87
2019-03-03T19:52:33.695Z,39.47
2019-03-03T19:55:08.232Z,48.07
2019-03-03T19:57:56.560Z,38.07
2019-03-03T20:00:36.836Z,32.43
2019-03-03T20:03:22.144Z,36.63
2019-03-03T20:05:57.595Z,35.17
2019-03-03T20:08:31.570Z,37.67
2019-03-03T20:11:14.458Z,31.03
2019-03-03T20:13:56.662Z,33.70
2019-03-03T20:16:29.806Z,32.43
2019-03-03T20:19:05.378Z,29.90
2019-03-03T20:21:38.757Z,31.47
2019-03-03T20:24:12.708Z,30.33
2019-03-03T20:26:46.558Z,36.70
2019-03-03T20:29:20.198Z,30.40
2019-03-03T20:31:53.410Z,30.17
2019-03-03T20:34:27.375Z,29.03
2019-03-03T20:37:00.505Z,27.00
2019-03-03T20:39:34.448Z,27.63
2019-03-03T20:42:07.708Z,30.43
2019-03-03T20:44:51.764Z,27.00
2019-03-03T20:47:26.424Z,26.03
2019-03-03T20:50:01.076Z,24.97
2019-03-03T20:52:37.560Z,28.00
2019-03-03T20:55:12.862Z,26.47
2019-03-03T20:57:47.249Z,26.27
2019-03-03T21:00:31.050Z,27.50
2019-03-03T21:03:06.858Z,23.70
2019-03-03T21:05:40.227Z,23.50
2019-03-03T21:08:13.989Z,27.70
2019-03-03T21:10:48.936Z,25.33
2019-03-03T21:13:22.090Z,21.67
2019-03-03T21:15:57.420Z,27.00
2019-03-03T21:18:30.847Z,25.83
2019-03-03T21:21:04.112Z,25.57
2019-03-03T21:23:46.387Z,25.83
2019-03-03T21:26:21.618Z,19.20
2019-03-03T21:28:55.177Z,18.37
2019-03-03T21:31:29.694Z,20.23
2019-03-03T21:34:02.972Z,21.03
2019-03-03T21:36:45.083Z,18.80
2019-03-03T21:39:18.693Z,15.23
2019-03-03T21:41:52.605Z,19.20
2019-03-03T21:44:36.577Z,15.33
2019-03-03T21:47:11.279Z,18.73
2019-03-03T21:49:54.994Z,20.30
2019-03-03T21:52:37.538Z,19.67
2019-03-03T21:55:11.435Z,14.50
2019-03-03T21:57:45.970Z,15.87
2019-03-03T22:00:25.581Z,16.70
2019-03-03T22:03:07.981Z,17.47
2019-03-03T22:05:50.757Z,13.57
2019-03-03T22:08:24.667Z,14.90
2019-03-03T22:11:12.397Z,17.73
2019-03-03T22:13:55.215Z,13.53
2019-03-03T22:16:37.651Z,15.17
2019-03-03T22:19:11.188Z,11.63
2019-03-03T22:21:46.208Z,14.07
2019-03-03T22:24:22.273Z,13.60
2019-03-03T22:27:04.248Z,13.57
2019-03-03T22:29:37.763Z,17.43
2019-03-03T22:32:11.373Z,12.90
2019-03-03T22:34:45.200Z,11.40
2019-03-03T22:37:18.662Z,14.53
2019-03-03T22:39:52.108Z,17.63
2019-03-03T22:42:26.669Z,15.13
2019-03-03T22:45:10.568Z,13.03
2019-03-03T22:47:44.051Z,14.13
2019-03-03T22:50:18.242Z,17.90
2019-03-03T22:53:00.731Z,17.97
2019-03-03T22:55:40.416Z,16.97
2019-03-03T22:58:13.410Z,14.57
2019-03-03T23:01:28.082Z,14.67
2019-03-03T23:05:15.750Z,12.80
2019-03-03T23:08:05.334Z,12.30
2019-03-03T23:11:31.866Z,15.13
2019-03-03T23:14:36.684Z,16.77
2019-03-03T23:17:42.210Z,16.30
2019-03-03T23:20:32.820Z,16.07
2019-03-03T23:23:49.925Z,20.17
2019-03-03T23:26:23.291Z,14.33
2019-03-03T23:28:57.227Z,17.60
2019-03-03T23:31:30.695Z,18.63
2019-03-03T23:34:03.919Z,18.33
2019-03-03T23:36:37.039Z,14.73
2019-03-03T23:39:26.224Z,14.57
2019-03-03T23:42:08.406Z,14.60
2019-03-03T23:44:43.082Z,19.00
2019-03-03T23:47:16.202Z,12.70
2019-03-03T23:49:58.502Z,15.40
2019-03-03T23:52:32.721Z,12.77
2019-03-03T23:55:15.312Z,17.10
2019-03-03T23:57:57.450Z,19.47
